sensor_id;sensor_type;location;lat;lon;timestamp;P1;durP1;ratioP1;P2;durP2;ratioP2
2720;SDS011;1368;49.484;11.112;2023-03-14T00:00:33;1.50;;;0.90;;
2720;SDS011;1368;49.484;11.112;2023-03-14T00:02:58;1.83;;;0.80;;
2720;SDS011;1368;49.484;11.112;2023-03-14T00:05:24;2.70;;;1.00;;
2720;SDS011;1368;49.484;11.112;2023-03-14T00:07:50;2.23;;;0.80;;
2720;SDS011;1368;49.484;11.112;2023-03-14T00:10:16;2.63;;;1.10;;
2720;SDS011;1368;49.484;11.112;2023-03-14T00:12:42;1.63;;;0.77;;
2720;SDS011;1368;49.484;11.112;2023-03-14T00:15:09;2.00;;;0.77;;
2720;SDS011;1368;49.484;11.112;2023-03-14T00:17:35;1.80;;;0.80;;
2720;SDS011;1368;49.484;11.112;2023-03-14T00:20:02;1.90;;;1.00;;
2720;SDS011;1368;49.484;11.112;2023-03-14T00:22:33;1.90;;;0.97;;
2720;SDS011;1368;49.484;11.112;2023-03-14T00:25:03;1.50;;;0.80;;
2720;SDS011;1368;49.484;11.112;2023-03-14T00:27:30;1.90;;;1.07;;
2720;SDS011;1368;49.484;11.112;2023-03-14T00:29:56;1.50;;;0.90;;
2720;SDS011;1368;49.484;11.112;2023-03-14T00:32:21;4.50;;;1.10;;
2720;SDS011;1368;49.484;11.112;2023-03-14T00:34:47;2.47;;;1.03;;
2720;SDS011;1368;49.484;11.112;2023-03-14T00:37:12;2.90;;;1.27;;
2720;SDS011;1368;49.484;11.112;2023-03-14T00:39:38;2.23;;;1.13;;
2720;SDS011;1368;49.484;11.112;2023-03-14T00:42:03;1.50;;;0.80;;
2720;SDS011;1368;49.484;11.112;2023-03-14T00:44:29;1.60;;;1.07;;
2720;SDS011;1368;49.484;11.112;2023-03-14T00:46:55;2.80;;;0.97;;
2720;SDS011;1368;49.484;11.112;2023-03-14T00:49:20;2.23;;;0.90;;
2720;SDS011;1368;49.484;11.112;2023-03-14T00:51:46;1.83;;;0.87;;
2720;SDS011;1368;49.484;11.112;2023-03-14T00:54:12;1.97;;;0.90;;
2720;SDS011;1368;49.484;11.112;2023-03-14T00:56:37;1.17;;;0.60;;
2720;SDS011;1368;49.484;11.112;2023-03-14T00:59:03;1.50;;;0.80;;
2720;SDS011;1368;49.484;11.112;2023-03-14T01:01:28;1.60;;;0.60;;
2720;SDS011;1368;49.484;11.112;2023-03-14T01:03:54;1.53;;;0.73;;
2720;SDS011;1368;49.484;11.112;2023-03-14T01:06:21;1.20;;;0.60;;
2720;SDS011;1368;49.484;11.112;2023-03-14T01:08:49;4.37;;;0.60;;
2720;SDS011;1368;49.484;11.112;2023-03-14T01:11:20;1.90;;;0.90;;
2720;SDS011;1368;49.484;11.112;2023-03-14T01:13:47;1.93;;;0.70;;
2720;SDS011;1368;49.484;11.112;2023-03-14T01:16:14;1.50;;;0.50;;
2720;SDS011;1368;49.484;11.112;2023-03-14T01:18:40;2.87;;;0.70;;
2720;SDS011;1368;49.484;11.112;2023-03-14T01:21:15;1.93;;;0.50;;
2720;SDS011;1368;49.484;11.112;2023-03-14T01:23:50;2.03;;;0.60;;
2720;SDS011;1368;49.484;11.112;2023-03-14T01:26:17;1.30;;;0.50;;
2720;SDS011;1368;49.484;11.112;2023-03-14T01:28:44;1.50;;;0.70;;
2720;SDS011;1368;49.484;11.112;2023-03-14T01:31:11;1.20;;;0.40;;
2720;SDS011;1368;49.484;11.112;2023-03-14T01:33:36;1.30;;;0.47;;
2720;SDS011;1368;49.484;11.112;2023-03-14T01:36:03;1.70;;;0.70;;
2720;SDS011;1368;49.484;11.112;2023-03-14T01:38:29;2.10;;;0.60;;
2720;SDS011;1368;49.484;11.112;2023-03-14T01:40:55;1.67;;;0.50;;
2720;SDS011;1368;49.484;11.112;2023-03-14T01:43:22;1.30;;;0.53;;
2720;SDS011;1368;49.484;11.112;2023-03-14T01:46:34;2.43;;;0.80;;
2720;SDS011;1368;49.484;11.112;2023-03-14T01:54:33;1.97;;;0.57;;
2720;SDS011;1368;49.484;11.112;2023-03-14T01:59:38;1.90;;;0.80;;
2720;SDS011;1368;49.484;11.112;2023-03-14T02:02:06;1.50;;;0.70;;
2720;SDS011;1368;49.484;11.112;2023-03-14T02:04:35;5.10;;;2.00;;
2720;SDS011;1368;49.484;11.112;2023-03-14T02:09:57;1.40;;;0.60;;
2720;SDS011;1368;49.484;11.112;2023-03-14T02:12:23;1.43;;;0.60;;
2720;SDS011;1368;49.484;11.112;2023-03-14T02:14:49;1.80;;;0.80;;
2720;SDS011;1368;49.484;11.112;2023-03-14T02:17:16;2.33;;;0.80;;
2720;SDS011;1368;49.484;11.112;2023-03-14T02:22:15;1.53;;;0.67;;
2720;SDS011;1368;49.484;11.112;2023-03-14T02:27:29;2.43;;;0.70;;
2720;SDS011;1368;49.484;11.112;2023-03-14T02:29:59;1.60;;;0.60;;
2720;SDS011;1368;49.484;11.112;2023-03-14T02:32:29;1.50;;;0.70;;
2720;SDS011;1368;49.484;11.112;2023-03-14T02:34:58;1.33;;;0.67;;
2720;SDS011;1368;49.484;11.112;2023-03-14T02:37:30;1.83;;;0.67;;
2720;SDS011;1368;49.484;11.112;2023-03-14T02:40:01;2.13;;;0.63;;
2720;SDS011;1368;49.484;11.112;2023-03-14T02:42:29;4.30;;;0.80;;
2720;SDS011;1368;49.484;11.112;2023-03-14T02:45:25;1.60;;;0.80;;
2720;SDS011;1368;49.484;11.112;2023-03-14T02:47:47;1.53;;;0.60;;
2720;SDS011;1368;49.484;11.112;2023-03-14T02:50:18;1.80;;;0.70;;
2720;SDS011;1368;49.484;11.112;2023-03-14T02:52:47;2.80;;;0.90;;
2720;SDS011;1368;49.484;11.112;2023-03-14T02:55:13;2.73;;;0.80;;
2720;SDS011;1368;49.484;11.112;2023-03-14T02:57:39;2.90;;;0.90;;
2720;SDS011;1368;49.484;11.112;2023-03-14T03:00:05;1.50;;;0.60;;
2720;SDS011;1368;49.484;11.112;2023-03-14T03:02:31;1.70;;;0.70;;
2720;SDS011;1368;49.484;11.112;2023-03-14T03:04:57;2.40;;;0.60;;
2720;SDS011;1368;49.484;11.112;2023-03-14T03:07:23;1.80;;;0.70;;
2720;SDS011;1368;49.484;11.112;2023-03-14T03:09:49;2.00;;;0.73;;
2720;SDS011;1368;49.484;11.112;2023-03-14T03:12:14;1.33;;;0.50;;
2720;SDS011;1368;49.484;11.112;2023-03-14T03:14:40;2.70;;;0.70;;
2720;SDS011;1368;49.484;11.112;2023-03-14T03:17:06;1.70;;;0.67;;
2720;SDS011;1368;49.484;11.112;2023-03-14T03:19:32;2.63;;;0.73;;
2720;SDS011;1368;49.484;11.112;2023-03-14T03:21:58;2.23;;;0.73;;
2720;SDS011;1368;49.484;11.112;2023-03-14T03:24:24;1.40;;;0.60;;
2720;SDS011;1368;49.484;11.112;2023-03-14T03:26:51;2.40;;;0.53;;
2720;SDS011;1368;49.484;11.112;2023-03-14T03:29:17;1.97;;;0.53;;
2720;SDS011;1368;49.484;11.112;2023-03-14T03:31:42;2.30;;;0.70;;
2720;SDS011;1368;49.484;11.112;2023-03-14T03:34:10;1.60;;;0.90;;
2720;SDS011;1368;49.484;11.112;2023-03-14T03:36:36;2.63;;;0.60;;
2720;SDS011;1368;49.484;11.112;2023-03-14T03:39:02;1.60;;;0.70;;
2720;SDS011;1368;49.484;11.112;2023-03-14T03:41:28;2.03;;;0.83;;
2720;SDS011;1368;49.484;11.112;2023-03-14T03:43:55;1.70;;;0.60;;
2720;SDS011;1368;49.484;11.112;2023-03-14T03:46:21;1.60;;;0.70;;
2720;SDS011;1368;49.484;11.112;2023-03-14T03:48:47;1.80;;;0.70;;
2720;SDS011;1368;49.484;11.112;2023-03-14T03:51:13;2.60;;;0.73;;
2720;SDS011;1368;49.484;11.112;2023-03-14T03:53:40;3.00;;;0.60;;
2720;SDS011;1368;49.484;11.112;2023-03-14T03:56:06;1.30;;;0.50;;
2720;SDS011;1368;49.484;11.112;2023-03-14T03:58:32;1.67;;;0.50;;
2720;SDS011;1368;49.484;11.112;2023-03-14T04:00:58;1.47;;;0.60;;
2720;SDS011;1368;49.484;11.112;2023-03-14T04:03:23;1.50;;;0.60;;
2720;SDS011;1368;49.484;11.112;2023-03-14T04:06:03;1.43;;;0.50;;
2720;SDS011;1368;49.484;11.112;2023-03-14T04:08:30;1.77;;;0.70;;
2720;SDS011;1368;49.484;11.112;2023-03-14T04:10:57;1.70;;;0.83;;
2720;SDS011;1368;49.484;11.112;2023-03-14T04:13:23;3.20;;;0.90;;
2720;SDS011;1368;49.484;11.112;2023-03-14T04:15:49;1.63;;;0.50;;
2720;SDS011;1368;49.484;11.112;2023-03-14T04:18:15;1.40;;;0.60;;
2720;SDS011;1368;49.484;11.112;2023-03-14T04:20:41;1.50;;;0.60;;
2720;SDS011;1368;49.484;11.112;2023-03-14T04:23:06;6.60;;;0.70;;
2720;SDS011;1368;49.484;11.112;2023-03-14T04:25:32;3.50;;;0.80;;
2720;SDS011;1368;49.484;11.112;2023-03-14T04:27:57;1.60;;;0.70;;
2720;SDS011;1368;49.484;11.112;2023-03-14T04:30:23;1.40;;;0.60;;
2720;SDS011;1368;49.484;11.112;2023-03-14T04:32:48;2.00;;;0.60;;
2720;SDS011;1368;49.484;11.112;2023-03-14T04:35:14;1.47;;;0.50;;
2720;SDS011;1368;49.484;11.112;2023-03-14T04:37:40;1.73;;;0.77;;
2720;SDS011;1368;49.484;11.112;2023-03-14T04:40:08;1.70;;;0.70;;
2720;SDS011;1368;49.484;11.112;2023-03-14T04:42:34;1.30;;;0.60;;
2720;SDS011;1368;49.484;11.112;2023-03-14T04:45:00;1.97;;;0.70;;
2720;SDS011;1368;49.484;11.112;2023-03-14T04:47:26;1.43;;;0.63;;
2720;SDS011;1368;49.484;11.112;2023-03-14T04:49:52;2.80;;;0.50;;
2720;SDS011;1368;49.484;11.112;2023-03-14T04:52:18;1.20;;;0.50;;
2720;SDS011;1368;49.484;11.112;2023-03-14T04:54:43;2.53;;;0.90;;
2720;SDS011;1368;49.484;11.112;2023-03-14T04:57:09;1.33;;;0.60;;
2720;SDS011;1368;49.484;11.112;2023-03-14T04:59:34;1.97;;;0.60;;
2720;SDS011;1368;49.484;11.112;2023-03-14T05:02:00;1.40;;;0.80;;
2720;SDS011;1368;49.484;11.112;2023-03-14T05:04:25;2.70;;;1.00;;
2720;SDS011;1368;49.484;11.112;2023-03-14T05:06:51;1.70;;;0.63;;
2720;SDS011;1368;49.484;11.112;2023-03-14T05:09:17;1.93;;;0.93;;
2720;SDS011;1368;49.484;11.112;2023-03-14T05:11:42;1.83;;;0.70;;
2720;SDS011;1368;49.484;11.112;2023-03-14T05:14:08;1.30;;;0.67;;
2720;SDS011;1368;49.484;11.112;2023-03-14T05:16:33;3.63;;;0.83;;
2720;SDS011;1368;49.484;11.112;2023-03-14T05:18:59;1.73;;;0.60;;
2720;SDS011;1368;49.484;11.112;2023-03-14T05:21:26;1.77;;;0.60;;
2720;SDS011;1368;49.484;11.112;2023-03-14T05:23:52;2.37;;;0.70;;
2720;SDS011;1368;49.484;11.112;2023-03-14T05:26:17;3.57;;;0.60;;
2720;SDS011;1368;49.484;11.112;2023-03-14T05:28:43;1.60;;;0.80;;
2720;SDS011;1368;49.484;11.112;2023-03-14T05:31:09;1.70;;;0.83;;
2720;SDS011;1368;49.484;11.112;2023-03-14T05:33:34;4.20;;;1.00;;
2720;SDS011;1368;49.484;11.112;2023-03-14T05:36:00;2.60;;;0.60;;
2720;SDS011;1368;49.484;11.112;2023-03-14T05:38:25;1.47;;;0.70;;
2720;SDS011;1368;49.484;11.112;2023-03-14T05:40:51;2.00;;;0.80;;
2720;SDS011;1368;49.484;11.112;2023-03-14T05:43:16;4.37;;;1.13;;
2720;SDS011;1368;49.484;11.112;2023-03-14T05:45:42;2.27;;;0.90;;
2720;SDS011;1368;49.484;11.112;2023-03-14T05:48:08;3.70;;;1.10;;
2720;SDS011;1368;49.484;11.112;2023-03-14T05:50:34;3.47;;;0.83;;
2720;SDS011;1368;49.484;11.112;2023-03-14T05:52:59;3.70;;;1.00;;
2720;SDS011;1368;49.484;11.112;2023-03-14T05:55:25;2.13;;;1.00;;
2720;SDS011;1368;49.484;11.112;2023-03-14T05:57:50;3.43;;;1.20;;
2720;SDS011;1368;49.484;11.112;2023-03-14T06:00:18;1.50;;;0.70;;
2720;SDS011;1368;49.484;11.112;2023-03-14T06:02:44;1.70;;;0.83;;
2720;SDS011;1368;49.484;11.112;2023-03-14T06:05:09;1.63;;;0.83;;
2720;SDS011;1368;49.484;11.112;2023-03-14T06:07:35;4.80;;;1.30;;
2720;SDS011;1368;49.484;11.112;2023-03-14T06:10:00;1.83;;;0.80;;
2720;SDS011;1368;49.484;11.112;2023-03-14T06:12:27;2.23;;;1.30;;
2720;SDS011;1368;49.484;11.112;2023-03-14T06:14:53;5.40;;;1.37;;
2720;SDS011;1368;49.484;11.112;2023-03-14T06:17:18;2.10;;;1.00;;
2720;SDS011;1368;49.484;11.112;2023-03-14T06:19:44;1.97;;;1.07;;
2720;SDS011;1368;49.484;11.112;2023-03-14T06:22:09;2.40;;;1.00;;
2720;SDS011;1368;49.484;11.112;2023-03-14T06:24:35;2.60;;;0.90;;
2720;SDS011;1368;49.484;11.112;2023-03-14T06:27:00;3.20;;;1.23;;
2720;SDS011;1368;49.484;11.112;2023-03-14T06:29:27;2.73;;;1.00;;
2720;SDS011;1368;49.484;11.112;2023-03-14T06:31:54;3.20;;;1.50;;
2720;SDS011;1368;49.484;11.112;2023-03-14T06:34:19;2.00;;;1.07;;
2720;SDS011;1368;49.484;11.112;2023-03-14T06:36:45;2.60;;;1.40;;
2720;SDS011;1368;49.484;11.112;2023-03-14T06:39:10;2.10;;;1.00;;
2720;SDS011;1368;49.484;11.112;2023-03-14T06:41:36;3.37;;;1.20;;
2720;SDS011;1368;49.484;11.112;2023-03-14T06:44:02;2.80;;;1.33;;
2720;SDS011;1368;49.484;11.112;2023-03-14T06:46:27;4.57;;;1.10;;
2720;SDS011;1368;49.484;11.112;2023-03-14T06:48:53;2.73;;;1.40;;
2720;SDS011;1368;49.484;11.112;2023-03-14T06:51:19;2.20;;;1.20;;
2720;SDS011;1368;49.484;11.112;2023-03-14T06:53:44;2.83;;;1.40;;
2720;SDS011;1368;49.484;11.112;2023-03-14T06:56:10;2.40;;;1.10;;
2720;SDS011;1368;49.484;11.112;2023-03-14T06:58:35;2.37;;;1.20;;
2720;SDS011;1368;49.484;11.112;2023-03-14T07:01:01;4.67;;;1.87;;
2720;SDS011;1368;49.484;11.112;2023-03-14T07:03:27;2.40;;;1.20;;
2720;SDS011;1368;49.484;11.112;2023-03-14T07:05:52;3.20;;;1.30;;
2720;SDS011;1368;49.484;11.112;2023-03-14T07:08:18;1.90;;;1.10;;
2720;SDS011;1368;49.484;11.112;2023-03-14T07:10:44;2.20;;;1.13;;
2720;SDS011;1368;49.484;11.112;2023-03-14T07:13:09;2.83;;;1.13;;
2720;SDS011;1368;49.484;11.112;2023-03-14T07:15:35;2.50;;;1.53;;
2720;SDS011;1368;49.484;11.112;2023-03-14T07:18:01;2.13;;;1.20;;
2720;SDS011;1368;49.484;11.112;2023-03-14T07:20:27;2.13;;;1.10;;
2720;SDS011;1368;49.484;11.112;2023-03-14T07:22:53;3.03;;;1.40;;
2720;SDS011;1368;49.484;11.112;2023-03-14T07:25:19;3.33;;;1.67;;
2720;SDS011;1368;49.484;11.112;2023-03-14T07:27:45;4.53;;;1.30;;
2720;SDS011;1368;49.484;11.112;2023-03-14T07:30:13;4.00;;;1.27;;
2720;SDS011;1368;49.484;11.112;2023-03-14T07:32:39;3.17;;;1.20;;
2720;SDS011;1368;49.484;11.112;2023-03-14T07:35:05;5.63;;;1.40;;
2720;SDS011;1368;49.484;11.112;2023-03-14T07:37:31;3.20;;;1.50;;
2720;SDS011;1368;49.484;11.112;2023-03-14T07:39:57;3.13;;;1.60;;
2720;SDS011;1368;49.484;11.112;2023-03-14T07:42:22;3.30;;;1.60;;
2720;SDS011;1368;49.484;11.112;2023-03-14T07:44:48;3.87;;;1.67;;
2720;SDS011;1368;49.484;11.112;2023-03-14T07:47:14;2.43;;;1.80;;
2720;SDS011;1368;49.484;11.112;2023-03-14T07:49:39;5.70;;;1.93;;
2720;SDS011;1368;49.484;11.112;2023-03-14T07:52:05;3.50;;;1.63;;
2720;SDS011;1368;49.484;11.112;2023-03-14T07:54:30;4.80;;;1.87;;
2720;SDS011;1368;49.484;11.112;2023-03-14T07:56:56;2.20;;;1.20;;
2720;SDS011;1368;49.484;11.112;2023-03-14T07:59:23;2.77;;;1.70;;
2720;SDS011;1368;49.484;11.112;2023-03-14T08:01:49;3.53;;;1.50;;
2720;SDS011;1368;49.484;11.112;2023-03-14T08:04:14;3.90;;;1.40;;
2720;SDS011;1368;49.484;11.112;2023-03-14T08:06:40;4.03;;;1.53;;
2720;SDS011;1368;49.484;11.112;2023-03-14T08:09:05;2.60;;;1.43;;
2720;SDS011;1368;49.484;11.112;2023-03-14T08:11:31;3.13;;;1.37;;
2720;SDS011;1368;49.484;11.112;2023-03-14T08:13:56;5.50;;;1.20;;
2720;SDS011;1368;49.484;11.112;2023-03-14T08:16:22;7.10;;;1.57;;
2720;SDS011;1368;49.484;11.112;2023-03-14T08:18:48;4.73;;;1.70;;
2720;SDS011;1368;49.484;11.112;2023-03-14T08:21:13;3.33;;;1.50;;
2720;SDS011;1368;49.484;11.112;2023-03-14T08:23:39;2.97;;;1.37;;
2720;SDS011;1368;49.484;11.112;2023-03-14T08:26:05;4.10;;;1.40;;
2720;SDS011;1368;49.484;11.112;2023-03-14T08:28:31;4.57;;;1.50;;
2720;SDS011;1368;49.484;11.112;2023-03-14T08:30:58;6.10;;;1.40;;
2720;SDS011;1368;49.484;11.112;2023-03-14T08:33:25;5.13;;;1.30;;
2720;SDS011;1368;49.484;11.112;2023-03-14T08:35:52;3.47;;;1.40;;
2720;SDS011;1368;49.484;11.112;2023-03-14T08:38:22;4.50;;;1.60;;
2720;SDS011;1368;49.484;11.112;2023-03-14T08:40:48;4.77;;;1.50;;
2720;SDS011;1368;49.484;11.112;2023-03-14T08:43:15;4.50;;;1.50;;
2720;SDS011;1368;49.484;11.112;2023-03-14T08:45:40;5.17;;;1.70;;
2720;SDS011;1368;49.484;11.112;2023-03-14T08:48:06;2.87;;;1.13;;
2720;SDS011;1368;49.484;11.112;2023-03-14T08:50:31;3.07;;;1.77;;
2720;SDS011;1368;49.484;11.112;2023-03-14T08:52:57;3.33;;;1.57;;
2720;SDS011;1368;49.484;11.112;2023-03-14T08:55:24;5.20;;;1.63;;
2720;SDS011;1368;49.484;11.112;2023-03-14T08:57:52;5.27;;;1.30;;
2720;SDS011;1368;49.484;11.112;2023-03-14T09:00:18;4.50;;;1.20;;
2720;SDS011;1368;49.484;11.112;2023-03-14T09:02:44;4.03;;;1.23;;
2720;SDS011;1368;49.484;11.112;2023-03-14T09:05:10;3.13;;;0.97;;
2720;SDS011;1368;49.484;11.112;2023-03-14T09:07:36;6.73;;;1.20;;
2720;SDS011;1368;49.484;11.112;2023-03-14T09:10:02;3.83;;;1.30;;
2720;SDS011;1368;49.484;11.112;2023-03-14T09:12:28;5.90;;;1.10;;
2720;SDS011;1368;49.484;11.112;2023-03-14T09:14:53;3.03;;;1.10;;
2720;SDS011;1368;49.484;11.112;2023-03-14T09:17:19;3.10;;;1.00;;
2720;SDS011;1368;49.484;11.112;2023-03-14T09:19:44;3.47;;;1.30;;
2720;SDS011;1368;49.484;11.112;2023-03-14T09:22:10;3.83;;;1.20;;
2720;SDS011;1368;49.484;11.112;2023-03-14T09:24:35;2.90;;;1.30;;
2720;SDS011;1368;49.484;11.112;2023-03-14T09:27:01;3.20;;;1.13;;
2720;SDS011;1368;49.484;11.112;2023-03-14T09:29:27;2.63;;;1.10;;
2720;SDS011;1368;49.484;11.112;2023-03-14T09:31:52;4.53;;;1.23;;
2720;SDS011;1368;49.484;11.112;2023-03-14T09:34:18;3.27;;;1.27;;
2720;SDS011;1368;49.484;11.112;2023-03-14T09:36:44;3.13;;;1.30;;
2720;SDS011;1368;49.484;11.112;2023-03-14T09:39:10;6.43;;;1.20;;
2720;SDS011;1368;49.484;11.112;2023-03-14T09:41:37;3.57;;;1.33;;
2720;SDS011;1368;49.484;11.112;2023-03-14T09:44:08;4.13;;;1.07;;
2720;SDS011;1368;49.484;11.112;2023-03-14T09:46:50;2.23;;;0.93;;
2720;SDS011;1368;49.484;11.112;2023-03-14T09:49:27;3.77;;;1.83;;
2720;SDS011;1368;49.484;11.112;2023-03-14T09:51:56;4.27;;;1.33;;
2720;SDS011;1368;49.484;11.112;2023-03-14T09:54:28;5.90;;;1.20;;
2720;SDS011;1368;49.484;11.112;2023-03-14T09:57:11;5.73;;;1.70;;
2720;SDS011;1368;49.484;11.112;2023-03-14T09:59:40;2.87;;;1.13;;
2720;SDS011;1368;49.484;11.112;2023-03-14T10:02:17;5.60;;;1.37;;
2720;SDS011;1368;49.484;11.112;2023-03-14T10:04:45;3.80;;;1.17;;
2720;SDS011;1368;49.484;11.112;2023-03-14T10:07:13;3.00;;;1.20;;
2720;SDS011;1368;49.484;11.112;2023-03-14T10:09:43;2.23;;;0.90;;
2720;SDS011;1368;49.484;11.112;2023-03-14T10:12:09;3.27;;;1.27;;
2720;SDS011;1368;49.484;11.112;2023-03-14T10:14:36;6.33;;;0.90;;
2720;SDS011;1368;49.484;11.112;2023-03-14T10:17:10;3.20;;;1.20;;
2720;SDS011;1368;49.484;11.112;2023-03-14T10:19:37;2.60;;;0.87;;
2720;SDS011;1368;49.484;11.112;2023-03-14T10:22:24;2.80;;;1.13;;
2720;SDS011;1368;49.484;11.112;2023-03-14T10:24:57;2.03;;;0.87;;
2720;SDS011;1368;49.484;11.112;2023-03-14T10:27:28;3.33;;;1.30;;
2720;SDS011;1368;49.484;11.112;2023-03-14T10:29:59;2.80;;;1.27;;
2720;SDS011;1368;49.484;11.112;2023-03-14T10:32:42;4.53;;;1.23;;
2720;SDS011;1368;49.484;11.112;2023-03-14T10:40:27;3.03;;;1.40;;
2720;SDS011;1368;49.484;11.112;2023-03-14T10:42:57;5.00;;;1.57;;
2720;SDS011;1368;49.484;11.112;2023-03-14T10:45:31;5.47;;;1.20;;
2720;SDS011;1368;49.484;11.112;2023-03-14T10:48:06;4.00;;;1.30;;
2720;SDS011;1368;49.484;11.112;2023-03-14T10:50:56;2.67;;;1.00;;
2720;SDS011;1368;49.484;11.112;2023-03-14T10:53:22;2.00;;;0.80;;
2720;SDS011;1368;49.484;11.112;2023-03-14T10:55:48;3.07;;;0.90;;
2720;SDS011;1368;49.484;11.112;2023-03-14T10:58:24;2.37;;;0.83;;
2720;SDS011;1368;49.484;11.112;2023-03-14T11:01:08;7.80;;;1.10;;
2720;SDS011;1368;49.484;11.112;2023-03-14T11:03:37;5.73;;;0.90;;
2720;SDS011;1368;49.484;11.112;2023-03-14T11:08:49;3.83;;;1.10;;
2720;SDS011;1368;49.484;11.112;2023-03-14T11:11:41;3.50;;;1.23;;
2720;SDS011;1368;49.484;11.112;2023-03-14T11:19:17;8.50;;;1.10;;
2720;SDS011;1368;49.484;11.112;2023-03-14T11:22:01;6.90;;;1.77;;
2720;SDS011;1368;49.484;11.112;2023-03-14T11:24:56;2.67;;;1.10;;
2720;SDS011;1368;49.484;11.112;2023-03-14T11:27:39;3.13;;;0.90;;
2720;SDS011;1368;49.484;11.112;2023-03-14T11:32:52;5.27;;;1.30;;
2720;SDS011;1368;49.484;11.112;2023-03-14T11:35:34;4.80;;;1.53;;
2720;SDS011;1368;49.484;11.112;2023-03-14T11:40:58;3.30;;;1.13;;
2720;SDS011;1368;49.484;11.112;2023-03-14T11:43:29;2.40;;;1.10;;
2720;SDS011;1368;49.484;11.112;2023-03-14T11:46:04;2.00;;;0.70;;
2720;SDS011;1368;49.484;11.112;2023-03-14T11:51:16;2.00;;;0.77;;
2720;SDS011;1368;49.484;11.112;2023-03-14T11:53:58;3.20;;;0.90;;
2720;SDS011;1368;49.484;11.112;2023-03-14T11:56:27;1.90;;;0.50;;
2720;SDS011;1368;49.484;11.112;2023-03-14T11:59:01;3.30;;;1.10;;
2720;SDS011;1368;49.484;11.112;2023-03-14T12:01:40;2.07;;;0.60;;
2720;SDS011;1368;49.484;11.112;2023-03-14T12:04:28;1.87;;;0.80;;
2720;SDS011;1368;49.484;11.112;2023-03-14T12:07:03;2.47;;;0.70;;
2720;SDS011;1368;49.484;11.112;2023-03-14T12:09:37;1.70;;;0.60;;
2720;SDS011;1368;49.484;11.112;2023-03-14T12:12:04;5.47;;;0.90;;
2720;SDS011;1368;49.484;11.112;2023-03-14T12:14:32;2.40;;;0.93;;
2720;SDS011;1368;49.484;11.112;2023-03-14T12:17:21;2.50;;;0.90;;
2720;SDS011;1368;49.484;11.112;2023-03-14T12:22:34;2.50;;;0.60;;
2720;SDS011;1368;49.484;11.112;2023-03-14T12:27:41;2.80;;;0.83;;
2720;SDS011;1368;49.484;11.112;2023-03-14T12:30:24;1.83;;;0.63;;
2720;SDS011;1368;49.484;11.112;2023-03-14T12:38:46;2.73;;;0.80;;
2720;SDS011;1368;49.484;11.112;2023-03-14T12:43:40;2.47;;;0.57;;
2720;SDS011;1368;49.484;11.112;2023-03-14T12:48:44;2.57;;;0.70;;
2720;SDS011;1368;49.484;11.112;2023-03-14T12:51:12;1.60;;;0.60;;
2720;SDS011;1368;49.484;11.112;2023-03-14T12:56:20;3.20;;;0.63;;
2720;SDS011;1368;49.484;11.112;2023-03-14T12:59:18;6.83;;;1.10;;
2720;SDS011;1368;49.484;11.112;2023-03-14T13:01:48;1.90;;;1.00;;
2720;SDS011;1368;49.484;11.112;2023-03-14T13:04:20;2.53;;;0.60;;
2720;SDS011;1368;49.484;11.112;2023-03-14T13:07:02;2.07;;;0.80;;
2720;SDS011;1368;49.484;11.112;2023-03-14T13:11:54;3.17;;;1.00;;
2720;SDS011;1368;49.484;11.112;2023-03-14T13:14:22;1.50;;;0.53;;
2720;SDS011;1368;49.484;11.112;2023-03-14T13:16:48;3.23;;;0.63;;
2720;SDS011;1368;49.484;11.112;2023-03-14T13:19:18;2.00;;;0.80;;
2720;SDS011;1368;49.484;11.112;2023-03-14T13:21:48;1.50;;;0.50;;
2720;SDS011;1368;49.484;11.112;2023-03-14T13:24:22;1.47;;;0.60;;
2720;SDS011;1368;49.484;11.112;2023-03-14T13:26:52;1.50;;;0.70;;
2720;SDS011;1368;49.484;11.112;2023-03-14T13:31:56;1.63;;;0.60;;
2720;SDS011;1368;49.484;11.112;2023-03-14T13:34:25;1.43;;;0.50;;
2720;SDS011;1368;49.484;11.112;2023-03-14T13:36:53;1.90;;;0.70;;
2720;SDS011;1368;49.484;11.112;2023-03-14T13:39:20;2.00;;;0.60;;
2720;SDS011;1368;49.484;11.112;2023-03-14T13:41:49;1.70;;;0.70;;
2720;SDS011;1368;49.484;11.112;2023-03-14T13:44:17;1.40;;;0.60;;
2720;SDS011;1368;49.484;11.112;2023-03-14T13:46:52;1.47;;;0.50;;
2720;SDS011;1368;49.484;11.112;2023-03-14T13:49:26;1.90;;;0.60;;
2720;SDS011;1368;49.484;11.112;2023-03-14T13:51:56;3.00;;;0.70;;
2720;SDS011;1368;49.484;11.112;2023-03-14T13:54:22;6.10;;;0.70;;
2720;SDS011;1368;49.484;11.112;2023-03-14T13:56:48;2.57;;;0.63;;
2720;SDS011;1368;49.484;11.112;2023-03-14T13:59:24;2.57;;;1.00;;
2720;SDS011;1368;49.484;11.112;2023-03-14T14:01:51;4.83;;;0.80;;
2720;SDS011;1368;49.484;11.112;2023-03-14T14:04:18;2.23;;;0.80;;
2720;SDS011;1368;49.484;11.112;2023-03-14T14:06:57;2.20;;;0.70;;
2720;SDS011;1368;49.484;11.112;2023-03-14T14:09:24;2.10;;;0.70;;
2720;SDS011;1368;49.484;11.112;2023-03-14T14:14:40;1.70;;;0.80;;
2720;SDS011;1368;49.484;11.112;2023-03-14T14:17:09;3.50;;;1.30;;
2720;SDS011;1368;49.484;11.112;2023-03-14T14:19:39;2.40;;;0.83;;
2720;SDS011;1368;49.484;11.112;2023-03-14T14:22:06;1.70;;;1.07;;
2720;SDS011;1368;49.484;11.112;2023-03-14T14:24:34;2.70;;;1.10;;
2720;SDS011;1368;49.484;11.112;2023-03-14T14:27:07;2.23;;;1.10;;
2720;SDS011;1368;49.484;11.112;2023-03-14T14:29:37;4.87;;;1.13;;
2720;SDS011;1368;49.484;11.112;2023-03-14T14:34:38;2.10;;;1.07;;
2720;SDS011;1368;49.484;11.112;2023-03-14T14:37:05;1.93;;;1.17;;
2720;SDS011;1368;49.484;11.112;2023-03-14T14:39:47;2.20;;;1.00;;
2720;SDS011;1368;49.484;11.112;2023-03-14T14:42:17;2.00;;;1.00;;
2720;SDS011;1368;49.484;11.112;2023-03-14T14:44:47;2.10;;;1.23;;
2720;SDS011;1368;49.484;11.112;2023-03-14T14:47:16;2.00;;;1.20;;
2720;SDS011;1368;49.484;11.112;2023-03-14T14:49:44;2.13;;;1.30;;
2720;SDS011;1368;49.484;11.112;2023-03-14T14:52:14;2.03;;;1.00;;
2720;SDS011;1368;49.484;11.112;2023-03-14T14:57:51;2.40;;;1.57;;
2720;SDS011;1368;49.484;11.112;2023-03-14T15:00:25;1.77;;;1.00;;
2720;SDS011;1368;49.484;11.112;2023-03-14T15:02:52;2.50;;;1.77;;
2720;SDS011;1368;49.484;11.112;2023-03-14T15:05:24;2.37;;;1.47;;
2720;SDS011;1368;49.484;11.112;2023-03-14T15:07:51;4.30;;;1.57;;
2720;SDS011;1368;49.484;11.112;2023-03-14T15:10:18;3.37;;;1.37;;
2720;SDS011;1368;49.484;11.112;2023-03-14T15:12:46;1.70;;;1.10;;
2720;SDS011;1368;49.484;11.112;2023-03-14T15:15:14;4.10;;;2.80;;
2720;SDS011;1368;49.484;11.112;2023-03-14T15:17:41;2.63;;;1.70;;
2720;SDS011;1368;49.484;11.112;2023-03-14T15:20:11;3.27;;;1.70;;
2720;SDS011;1368;49.484;11.112;2023-03-14T15:22:38;2.37;;;1.77;;
2720;SDS011;1368;49.484;11.112;2023-03-14T15:25:04;2.47;;;1.80;;
2720;SDS011;1368;49.484;11.112;2023-03-14T15:27:31;4.00;;;2.53;;
2720;SDS011;1368;49.484;11.112;2023-03-14T15:29:57;2.57;;;1.93;;
2720;SDS011;1368;49.484;11.112;2023-03-14T15:32:24;4.20;;;2.70;;
2720;SDS011;1368;49.484;11.112;2023-03-14T15:34:52;4.67;;;2.97;;
2720;SDS011;1368;49.484;11.112;2023-03-14T15:37:18;3.77;;;2.77;;
2720;SDS011;1368;49.484;11.112;2023-03-14T15:39:44;4.43;;;2.17;;
2720;SDS011;1368;49.484;11.112;2023-03-14T15:42:10;3.93;;;2.50;;
2720;SDS011;1368;49.484;11.112;2023-03-14T15:44:36;6.87;;;2.50;;
2720;SDS011;1368;49.484;11.112;2023-03-14T15:47:03;4.03;;;2.43;;
2720;SDS011;1368;49.484;11.112;2023-03-14T15:49:29;3.40;;;2.53;;
2720;SDS011;1368;49.484;11.112;2023-03-14T15:51:55;3.70;;;2.70;;
2720;SDS011;1368;49.484;11.112;2023-03-14T15:54:20;3.77;;;2.60;;
2720;SDS011;1368;49.484;11.112;2023-03-14T15:56:46;6.93;;;3.13;;
2720;SDS011;1368;49.484;11.112;2023-03-14T15:59:11;5.23;;;2.80;;
2720;SDS011;1368;49.484;11.112;2023-03-14T16:01:37;3.53;;;2.37;;
2720;SDS011;1368;49.484;11.112;2023-03-14T16:04:03;4.83;;;2.30;;
2720;SDS011;1368;49.484;11.112;2023-03-14T16:06:28;4.07;;;2.67;;
2720;SDS011;1368;49.484;11.112;2023-03-14T16:08:55;7.30;;;2.80;;
2720;SDS011;1368;49.484;11.112;2023-03-14T16:11:21;5.00;;;3.33;;
2720;SDS011;1368;49.484;11.112;2023-03-14T16:13:46;5.10;;;3.10;;
2720;SDS011;1368;49.484;11.112;2023-03-14T16:16:13;4.30;;;3.13;;